createdAt,value
2023-01-08T04:04:43.121Z,999.90
2023-01-08T04:07:56.392Z,999.90
2023-01-08T04:11:06.303Z,999.90
2023-01-08T04:14:16.145Z,999.90
2023-01-08T04:17:25.943Z,999.90
2023-01-08T04:20:37.073Z,999.90
2023-01-08T04:23:46.852Z,999.90
2023-01-08T04:26:56.710Z,999.90
2023-01-08T04:30:07.179Z,999.90
2023-01-08T04:33:16.995Z,999.90
2023-01-08T04:36:27.979Z,999.90
2023-01-08T04:39:37.716Z,999.90
2023-01-08T04:42:47.583Z,999.90
2023-01-08T04:45:59.543Z,999.90
2023-01-08T04:49:09.353Z,999.90
2023-01-08T04:52:20.407Z,999.90
2023-01-08T04:55:30.155Z,999.90
2023-01-08T04:58:40.705Z,999.90
2023-01-08T05:01:50.542Z,999.90
2023-01-08T05:05:00.453Z,999.90
2023-01-08T05:08:11.465Z,999.90
2023-01-08T05:11:21.339Z,999.90
2023-01-08T05:14:31.009Z,999.90
2023-01-08T05:17:40.755Z,999.90
2023-01-08T05:20:50.547Z,999.90
2023-01-08T05:24:01.504Z,999.90
2023-01-08T05:27:11.159Z,999.90
2023-01-08T05:30:21.117Z,999.90
2023-01-08T05:33:31.475Z,999.90
2023-01-08T05:36:41.515Z,999.90
2023-01-08T05:39:52.698Z,999.90
2023-01-08T05:43:05.287Z,999.90
2023-01-08T05:46:15.015Z,999.90
2023-01-08T05:49:24.937Z,999.90
2023-01-08T05:52:34.676Z,999.90
2023-01-08T05:55:45.718Z,999.90
2023-01-08T05:58:55.982Z,999.90
2023-01-08T08:40:43.015Z,999.90
2023-01-08T08:43:52.869Z,999.90
2023-01-08T08:47:02.702Z,999.90
2023-01-08T08:50:12.508Z,999.90
2023-01-08T08:53:22.230Z,999.90
2023-01-08T08:56:33.255Z,999.90
2023-01-08T08:59:43.535Z,999.90
2023-01-08T09:02:53.416Z,999.90
2023-01-08T09:06:03.502Z,999.90
2023-01-08T09:09:14.903Z,999.90
2023-01-08T09:12:26.041Z,999.90
2023-01-08T09:15:36.929Z,999.90
2023-01-08T09:18:46.974Z,999.90
2023-01-08T09:21:56.739Z,999.90
2023-01-08T09:25:06.962Z,999.90
2023-01-08T09:28:17.986Z,999.90
2023-01-08T09:31:28.675Z,999.90
2023-01-08T09:34:38.499Z,999.90
2023-01-08T09:37:51.761Z,999.90
2023-01-08T09:41:05.920Z,999.90
2023-01-08T09:44:21.445Z,999.90
2023-01-08T09:47:37.260Z,999.90
2023-01-08T09:50:48.516Z,999.90
2023-01-08T09:53:58.816Z,999.90
2023-01-08T09:57:13.530Z,77.90
2023-01-08T10:00:28.971Z,384.00
2023-01-08T10:03:42.632Z,999.90
2023-01-08T10:06:55.922Z,415.93
2023-01-08T10:10:06.176Z,999.90
2023-01-08T10:13:17.022Z,59.90
2023-01-08T10:16:32.096Z,999.90
2023-01-08T10:19:41.918Z,123.93
2023-01-08T10:22:54.940Z,59.87
2023-01-08T10:26:05.022Z,63.07
2023-01-08T10:29:16.944Z,71.87
2023-01-08T10:32:31.186Z,51.73
2023-01-08T10:35:42.880Z,42.73
2023-01-08T10:38:57.270Z,54.20
2023-01-08T10:42:08.030Z,375.10
2023-01-08T10:45:22.073Z,999.90
2023-01-08T10:48:37.468Z,65.90
2023-01-08T10:51:52.792Z,46.53
2023-01-08T10:55:13.266Z,47.67
2023-01-08T10:58:23.020Z,53.00
2023-01-08T11:01:33.834Z,33.63
2023-01-08T11:04:50.687Z,34.90
2023-01-08T11:08:01.881Z,70.83
2023-01-08T11:11:12.084Z,32.03
2023-01-08T11:14:25.749Z,67.00
2023-01-08T11:17:35.863Z,32.33
2023-01-08T11:20:48.047Z,36.63
2023-01-08T11:24:05.302Z,33.00
2023-01-08T11:27:17.977Z,49.37
2023-01-08T11:30:32.389Z,32.43
2023-01-08T11:33:45.239Z,36.50
2023-01-08T11:37:03.815Z,33.47
2023-01-08T11:40:17.589Z,30.07
2023-01-08T11:43:38.262Z,42.10
2023-01-08T11:46:58.519Z,33.23
2023-01-08T11:50:18.472Z,28.00
2023-01-08T11:53:36.479Z,28.60
2023-01-08T11:57:02.624Z,43.37
2023-01-08T12:00:31.218Z,28.57
2023-01-08T12:03:46.068Z,46.73
2023-01-08T12:07:07.336Z,30.03
2023-01-08T12:10:27.648Z,29.07
2023-01-08T12:13:49.860Z,36.83
2023-01-08T12:17:12.350Z,32.93
2023-01-08T12:20:33.188Z,30.83
2023-01-08T12:24:00.971Z,38.60
2023-01-08T12:27:34.604Z,34.73
2023-01-08T12:31:16.926Z,31.27
2023-01-08T12:34:38.554Z,40.47
2023-01-08T12:37:55.741Z,39.60
2023-01-08T12:41:09.797Z,34.97
2023-01-08T12:44:26.910Z,25.67
2023-01-08T12:47:39.093Z,32.23
2023-01-08T12:50:58.406Z,29.37
2023-01-08T12:54:17.442Z,26.00
2023-01-08T12:57:32.846Z,31.97
2023-01-08T13:00:53.515Z,28.70
2023-01-08T13:04:06.106Z,32.50
2023-01-08T13:07:20.672Z,39.03
2023-01-08T13:10:37.000Z,34.27
2023-01-08T13:13:46.774Z,34.53
2023-01-08T13:17:06.024Z,65.90
2023-01-08T13:20:22.770Z,39.00
2023-01-08T13:23:35.564Z,35.60
2023-01-08T13:26:45.415Z,34.83
2023-01-08T13:29:57.859Z,46.40
2023-01-08T13:33:28.794Z,31.37
2023-01-08T13:36:38.887Z,32.00
2023-01-08T13:39:48.885Z,27.70
2023-01-08T13:43:00.623Z,28.43
2023-01-08T13:46:17.461Z,46.50
2023-01-08T13:49:34.919Z,37.43
2023-01-08T13:52:46.793Z,35.03
2023-01-08T13:55:59.561Z,33.60
2023-01-08T13:59:21.456Z,33.10
2023-01-08T14:02:42.426Z,30.60
2023-01-08T14:05:54.035Z,43.40
2023-01-08T14:09:05.717Z,31.30
2023-01-08T14:12:20.469Z,33.53
2023-01-08T14:15:30.456Z,34.60
2023-01-08T14:18:44.028Z,30.37
2023-01-08T14:21:59.205Z,35.23
2023-01-08T14:25:11.275Z,39.70
2023-01-08T14:28:24.060Z,35.90
2023-01-08T14:31:33.864Z,38.60
2023-01-08T14:34:45.208Z,42.17
2023-01-08T14:37:56.626Z,38.57
2023-01-08T14:41:09.079Z,40.57
2023-01-08T14:44:25.974Z,41.87
2023-01-08T14:47:44.938Z,59.43
2023-01-08T14:51:02.736Z,48.23
2023-01-08T14:54:23.389Z,62.90
2023-01-08T14:57:33.165Z,52.73
2023-01-08T15:00:43.734Z,58.33
2023-01-08T15:04:05.864Z,49.77
2023-01-08T15:07:23.163Z,61.47
2023-01-08T15:10:38.715Z,57.80
2023-01-08T15:13:50.473Z,53.67
2023-01-08T15:17:06.286Z,45.87
2023-01-08T15:20:18.453Z,63.57
2023-01-08T15:23:34.547Z,53.10
2023-01-08T15:26:45.579Z,53.63
2023-01-08T15:30:00.237Z,53.90
2023-01-08T15:33:18.729Z,54.40
2023-01-08T15:36:29.014Z,77.73
2023-01-08T15:39:38.940Z,51.23
2023-01-08T15:43:00.989Z,74.83
2023-01-08T15:46:12.685Z,97.97
2023-01-08T15:49:22.491Z,54.70
2023-01-08T15:52:33.103Z,58.37
2023-01-08T15:55:45.207Z,999.90
2023-01-08T15:58:56.354Z,62.97
2023-01-08T16:02:06.215Z,376.60
2023-01-08T16:05:17.534Z,57.80
2023-01-08T16:08:27.416Z,70.97
2023-01-08T16:11:37.159Z,687.83
2023-01-08T16:14:48.113Z,685.53
2023-01-08T16:17:59.451Z,999.90
2023-01-08T16:21:10.973Z,999.90
2023-01-08T16:24:20.688Z,999.90
2023-01-08T16:27:31.727Z,999.90
2023-01-08T16:30:43.948Z,999.90
2023-01-08T16:33:53.739Z,999.90
2023-01-08T16:37:03.442Z,999.90
2023-01-08T16:40:13.741Z,683.73
2023-01-08T16:43:23.622Z,999.90
2023-01-08T16:46:34.710Z,999.90
2023-01-08T16:49:44.437Z,684.27
2023-01-08T16:52:54.232Z,678.87
2023-01-08T16:56:07.528Z,999.90
2023-01-08T16:59:23.285Z,999.90
2023-01-08T17:02:35.052Z,999.90
2023-01-08T17:05:44.800Z,999.90
2023-01-08T17:08:54.610Z,999.90
2023-01-08T17:12:04.520Z,999.90
2023-01-08T17:15:15.080Z,999.90
2023-01-08T17:18:26.095Z,999.90
2023-01-08T17:21:36.432Z,999.90
2023-01-08T17:24:46.192Z,999.90
2023-01-08T17:27:55.994Z,999.90
2023-01-08T17:31:07.285Z,999.90
2023-01-08T17:34:18.453Z,999.90
2023-01-08T17:37:30.042Z,999.90
2023-01-08T17:40:39.824Z,999.90
2023-01-08T17:43:49.680Z,999.90
2023-01-08T17:46:59.430Z,999.90
2023-01-08T17:50:11.839Z,999.90
2023-01-08T17:53:21.793Z,999.90
2023-01-08T17:56:31.603Z,999.90
2023-01-08T17:59:41.481Z,999.90
2023-01-08T18:02:51.280Z,999.90
2023-01-08T18:06:07.942Z,999.90
2023-01-08T18:09:17.619Z,999.90
2023-01-08T18:12:27.348Z,999.90
2023-01-08T18:15:37.039Z,999.90
2023-01-08T18:18:46.804Z,999.90
2023-01-08T18:21:58.021Z,999.90
2023-01-08T18:25:08.048Z,999.90
2023-01-08T18:28:17.821Z,999.90
2023-01-08T18:31:27.531Z,999.90
2023-01-08T18:34:38.744Z,999.90
2023-01-08T18:37:49.735Z,999.90
2023-01-08T18:41:00.180Z,999.90
2023-01-08T18:44:10.676Z,999.90
2023-01-08T18:47:20.615Z,999.90
2023-01-08T18:50:30.488Z,999.90
2023-01-08T18:53:41.582Z,999.90
2023-01-08T18:56:52.152Z,999.90
2023-01-08T19:00:03.460Z,999.90
2023-01-08T19:03:13.176Z,999.90
2023-01-08T19:06:23.020Z,999.90
2023-01-08T19:09:34.209Z,999.90
2023-01-08T19:12:44.097Z,999.90
2023-01-08T19:15:53.855Z,999.90
2023-01-08T19:19:03.633Z,999.90
2023-01-08T19:22:13.375Z,999.90
2023-01-08T19:25:24.436Z,999.90
2023-01-08T19:28:34.221Z,999.90
2023-01-08T19:31:44.065Z,999.90
2023-01-08T19:34:54.417Z,999.90
2023-01-08T19:38:04.249Z,999.90
2023-01-08T19:41:26.283Z,999.90
2023-01-08T19:44:36.038Z,999.90
2023-01-08T19:47:46.193Z,999.90
2023-01-08T19:50:55.886Z,999.90
2023-01-08T19:54:05.870Z,999.90
2023-01-08T19:57:16.879Z,999.90
2023-01-08T20:00:26.712Z,999.90
2023-01-08T20:03:36.451Z,999.90
2023-01-08T20:06:46.146Z,999.90
2023-01-08T20:09:56.060Z,999.90
2023-01-08T20:13:07.070Z,999.90
2023-01-08T20:16:19.142Z,999.90
2023-01-08T20:19:30.597Z,999.90
2023-01-08T20:22:40.361Z,999.90
2023-01-08T20:25:50.259Z,999.90
2023-01-08T20:29:01.471Z,999.90
2023-01-08T20:32:11.230Z,999.90
2023-01-08T20:35:21.055Z,999.90
2023-01-08T20:38:30.793Z,999.90
2023-01-08T20:41:46.527Z,999.90
2023-01-08T20:45:08.599Z,999.90
2023-01-08T20:48:18.381Z,999.90
2023-01-08T20:51:28.133Z,999.90
2023-01-08T20:54:37.950Z,999.90
2023-01-08T20:57:47.672Z,999.90
2023-01-08T21:01:05.579Z,999.90
2023-01-08T21:04:15.500Z,999.90
2023-01-08T21:07:29.458Z,999.90
2023-01-08T21:10:39.138Z,999.90
2023-01-08T21:13:48.891Z,999.90
2023-01-08T21:16:59.955Z,999.90
